Stolt Shearwater — ZCRD9 — position and weather

sailwx.info

Track history (hours):
 
Tides and Currents Weather Stations Pressure Air Temp Water Temp Dewpoint Dewpoint Depression Visibility Wind Speed Wind Dir Waves Ship Positions

Stolt Shearwater

Last reported at 2018-Apr-23 01:55 UTC. Time now 2018-Apr-23 02:11 UTC.
Position N 49°29' W 000°09'.

Length 96 m; draft 5.4 m.

Type: Ship (hazmat cat B). MMSI: 319402000.

Date/timePositionNaut miles runAvg speedWind from/ knotsBaromVisibWave heightAir tempDewpointWater temp
2018-Apr-23 01:55N 49°29' W 000°09'0 0.0
2018-Apr-23 01:25N 49°29' W 000°09'0 0.0
2018-Apr-23 00:58N 49°29' W 000°09'0 0.0
2018-Apr-23 00:28N 49°29' W 000°09'0 0.0
2018-Apr-22 23:58N 49°29' W 000°09'0 0.0
2018-Apr-22 23:28N 49°29' W 000°09'0 0.1
2018-Apr-22 22:58N 49°29' W 000°09'0 0.2
2018-Apr-22 22:28N 49°29' W 000°10'0 0.0
2018-Apr-22 21:58N 49°29' W 000°10'0 0.0
2018-Apr-22 21:28N 49°29' W 000°10'0 0.0
2018-Apr-22 20:52N 49°29' W 000°10'0 0.0
2018-Apr-22 20:25N 49°29' W 000°10'0 0.0
2018-Apr-22 19:58N 49°29' W 000°10'0 0.0
2018-Apr-22 19:28N 49°29' W 000°10'0 0.0
2018-Apr-22 18:58N 49°29' W 000°10'0 0.0
2018-Apr-22 18:28N 49°29' W 000°10'0 0.0
2018-Apr-22 17:58N 49°29' W 000°10'0 0.0
2018-Apr-22 17:28N 49°29' W 000°10'0 0.0
2018-Apr-22 16:58N 49°29' W 000°10'0 0.1
2018-Apr-22 16:30N 49°29' W 000°10'0 0.1
2018-Apr-22 16:01N 49°29' W 000°10'3 5.4
2018-Apr-22 15:30N 49°30' W 000°13'611.1
2018-Apr-22 15:00N 49°32' W 000°21'612.3
2018-Apr-22 14:30N 49°35' W 000°30'511.0
2018-Apr-22 14:00N 49°39' W 000°36'612.4
2018-Apr-22 13:31N 49°44' W 000°39'5 9.2
2018-Apr-22 13:01N 49°45' W 000°32'5 9.4
2018-Apr-22 12:30N 49°45' W 000°24'4 7.8
2018-Apr-22 12:00N 49°44' W 000°19'611.2
2018-Apr-22 11:30N 49°38' W 000°19'510.5
2018-Apr-22 11:00N 49°34' W 000°14'510.2
2018-Apr-22 10:30N 49°30' W 000°09'511.0
2018-Apr-22 10:00N 49°28' W 000°01'510.9
2018-Apr-22 09:30N 49°26' E 000°07'713.3
2018-Apr-22 09:00N 49°26' E 000°17'713.5
2018-Apr-22 08:31N 49°28' E 000°27'510.7
2018-Apr-22 08:00N 49°26' E 000°35'611.5
2018-Apr-22 07:31N 49°30' E 000°40'4 8.1
2018-Apr-22 07:00N 49°29' E 000°46'510.8
2018-Apr-22 06:30N 49°24' E 000°49'4 7.4
2018-Apr-22 06:01N 49°27' E 000°51'3 6.4
2018-Apr-22 05:30N 49°27' E 000°56'510.9
2018-Apr-22 05:01N 49°21' E 000°56'4 7.8
2018-Apr-22 04:30N 49°24' E 001°01'2 3.4
2018-Apr-22 04:00N 49°25' E 001°01'0 0.0
2018-Apr-22 03:30N 49°25' E 001°01'0 0.0
2018-Apr-22 03:00N 49°25' E 001°01'0 0.0
2018-Apr-22 02:30N 49°25' E 001°01'0 0.0
2018-Apr-22 02:00N 49°25' E 001°01'0 0.0
2018-Apr-22 01:30N 49°25' E 001°01'0 0.0
2018-Apr-22 01:00N 49°25' E 001°01'0 0.0
2018-Apr-22 00:30N 49°25' E 001°01'0 0.0
2018-Apr-22 00:00N 49°25' E 001°01'0 0.0
2018-Apr-21 23:27N 49°25' E 001°01'0 0.0
2018-Apr-21 23:00N 49°25' E 001°01'0 0.0
2018-Apr-21 22:30N 49°25' E 001°01'0 0.0
2018-Apr-21 22:00N 49°25' E 001°01'0 0.0
2018-Apr-21 21:30N 49°25' E 001°01'0 0.0
2018-Apr-21 21:00N 49°25' E 001°01'0 0.0
2018-Apr-21 20:30N 49°25' E 001°01'0 0.0
2018-Apr-21 20:00N 49°25' E 001°01'0 0.0
2018-Apr-21 19:30N 49°25' E 001°01'0 0.0
2018-Apr-21 19:00N 49°25' E 001°01'0 0.0
2018-Apr-21 18:30N 49°25' E 001°01'0 0.0
2018-Apr-21 18:00N 49°25' E 001°01'0 0.0
2018-Apr-21 17:30N 49°25' E 001°01'0 0.0
2018-Apr-21 17:00N 49°25' E 001°01'0 0.0
2018-Apr-21 16:30N 49°25' E 001°01'0 0.0
2018-Apr-21 16:00N 49°25' E 001°01'0 0.0
2018-Apr-21 15:30N 49°25' E 001°01'2 4.1
2018-Apr-21 15:00N 49°23' E 001°01'4 7.6
2018-Apr-21 14:30N 49°22' E 000°55'611.9
2018-Apr-21 14:00N 49°27' E 000°56'3 6.2
2018-Apr-21 13:30N 49°26' E 000°52'2 4.8
2018-Apr-21 13:00N 49°25' E 000°48'510.4
2018-Apr-21 12:30N 49°30' E 000°46'4 8.5
2018-Apr-21 12:00N 49°29' E 000°40'5 9.3
2018-Apr-21 11:30N 49°27' E 000°34'4 8.7
2018-Apr-21 11:00N 49°28' E 000°28'612.5
2018-Apr-21 10:30N 49°26' E 000°19'611.8
2018-Apr-21 10:00N 49°26' E 000°10'611.4
2018-Apr-21 09:30N 49°27' E 000°01'5 9.6
2018-Apr-21 09:00N 49°29' W 000°06'5 9.5
2018-Apr-21 08:30N 49°30' W 000°13'510.1
2018-Apr-21 08:00N 49°32' W 000°20'5 9.8
2018-Apr-21 07:30N 49°35' W 000°26'5 9.7
2018-Apr-21 07:00N 49°39' W 000°31'4 8.3
2018-Apr-21 06:30N 49°43' W 000°30'4 8.8
2018-Apr-21 06:00N 49°47' W 000°28'4 8.9
2018-Apr-21 05:30N 49°51' W 000°25'5 9.1
2018-Apr-21 05:00N 49°55' W 000°22'5 9.1
2018-Apr-21 04:30N 49°59' W 000°18'5 9.1
2018-Apr-21 04:01N 50°03' W 000°15'5 9.1
2018-Apr-21 03:31N 50°07' W 000°12'5 9.2
2018-Apr-21 03:00N 50°11' W 000°09'5 9.1
2018-Apr-21 02:30N 50°16' W 000°08'5 9.7
2018-Apr-21 02:00N 50°20' W 000°10'5 9.9
2018-Apr-21 01:30N 50°25' W 000°11'4 8.1
2018-Apr-21 01:00N 50°28' W 000°06'5 9.2
2018-Apr-21 00:30N 50°29' E 000°01'4 8.9
2018-Apr-21 00:00N 50°30' E 000°08'4 8.5
2018-Apr-20 23:30N 50°32' E 000°14'4 8.7
2018-Apr-20 23:00N 50°33' E 000°21'4 8.6
2018-Apr-20 22:30N 50°34' E 000°27'4 8.8
2018-Apr-20 22:00N 50°35' E 000°34'4 8.6
2018-Apr-20 21:30N 50°37' E 000°40'4 9.0
2018-Apr-20 21:00N 50°39' E 000°46'4 8.9
2018-Apr-20 20:30N 50°42' E 000°52'5 9.3
2018-Apr-20 20:00N 50°45' E 000°58'5 9.4
2018-Apr-20 19:30N 50°47' E 001°04'5 9.6
2018-Apr-20 18:58N 50°50' E 001°10'5 9.4
2018-Apr-20 18:29N 50°53' E 001°16'5 9.5
2018-Apr-20 18:00N 50°56' E 001°21'5 9.4
2018-Apr-20 17:30N 51°00' E 001°25'5 9.2
2018-Apr-20 17:00N 51°04' E 001°30'4 8.0
2018-Apr-20 16:30N 51°06' E 001°35'4 7.4
2018-Apr-20 16:01N 51°09' E 001°39'4 7.3
2018-Apr-20 15:30N 51°12' E 001°43'4 7.8
2018-Apr-20 15:00N 51°15' E 001°46'4 8.7
2018-Apr-20 14:30N 51°19' E 001°50'5 9.5
2018-Apr-20 14:00N 51°23' E 001°53'510.4
2018-Apr-20 13:30N 51°27' E 001°58'611.1
2018-Apr-20 13:00N 51°31' E 002°04'611.7
2018-Apr-20 12:30N 51°36' E 002°10'612.5
2018-Apr-20 12:00N 51°40' E 002°17'613.0
2018-Apr-20 11:31N 51°45' E 002°24'713.0
2018-Apr-20 11:00N 51°50' E 002°32'812.8
2018-Apr-20 10:23N 51°55' E 002°40'812.3
2018-Apr-20 09:45N 52°01' E 002°49'311.5
2018-Apr-20 09:30N 52°01' E 002°54'611.4
2018-Apr-20 08:59N 52°02' E 003°03'611.3
2018-Apr-20 08:30N 52°02' E 003°12'611.1
2018-Apr-20 08:00N 52°03' E 003°21'611.0
2018-Apr-20 07:27N 52°03' E 003°31'510.8
2018-Apr-20 07:00N 52°03' E 003°39'510.0
2018-Apr-20 06:30N 52°03' E 003°47'4 8.5
2018-Apr-20 06:00N 52°02' E 003°54'4 7.8
2018-Apr-20 05:31N 52°01' E 003°60'510.1
2018-Apr-20 05:00N 51°59' E 004°07'4 8.0
2018-Apr-20 04:30N 51°56' E 004°12'4 7.9
2018-Apr-20 04:00N 51°54' E 004°17'1 2.6
2018-Apr-20 03:29N 51°53' E 004°16'0 0.0
2018-Apr-19 11:44N 51°53' E 004°16'0 0.0
2018-Apr-19 11:30N 51°53' E 004°16'0 0.0
2018-Apr-19 11:00N 51°53' E 004°16'0 0.4
2018-Apr-19 10:30N 51°53' E 004°17'1 2.5
2018-Apr-19 10:00N 51°54' E 004°16'4 8.2
2018-Apr-19 09:30N 51°57' E 004°11'4 7.4
2018-Apr-19 09:00N 51°59' E 004°06'4 8.6
2018-Apr-19 08:30N 51°60' E 003°59'510.3
2018-Apr-19 08:00N 52°00' E 003°51'4 9.0
2018-Apr-19 07:31N 51°59' E 003°44'2 3.1
2018-Apr-19 07:00N 51°59' E 003°41'1 2.8
2018-Apr-19 06:30N 51°59' E 003°39'1 2.8
2018-Apr-19 06:00N 51°60' E 003°37'2 3.2
2018-Apr-19 05:28N 52°01' E 003°37'1 3.2
2018-Apr-19 05:00N 52°03' E 003°36'2 3.1
2018-Apr-19 04:30N 52°04' E 003°36'2 3.5
2018-Apr-19 04:00N 52°06' E 003°35'2 3.2
2018-Apr-19 03:30N 52°07' E 003°33'3 6.9
2018-Apr-19 03:00N 52°08' E 003°28'2 3.6
2018-Apr-19 02:30N 52°09' E 003°25'2 3.6
2018-Apr-19 02:00N 52°10' E 003°23'2 3.5
2018-Apr-19 01:29N 52°11' E 003°20'2 3.3
2018-Apr-19 01:00N 52°12' E 003°19'2 3.4
2018-Apr-19 00:28N 52°13' E 003°16'3 3.6
2018-Apr-18 23:42N 52°12' E 003°13'1 3.5
2018-Apr-18 23:21N 52°11' E 003°11'1 3.5
2018-Apr-18 22:59N 52°10' E 003°10'2 3.7
2018-Apr-18 22:30N 52°08' E 003°08'2 3.6
2018-Apr-18 21:59N 52°07' E 003°06'2 3.4
2018-Apr-18 21:28N 52°06' E 003°04'2 3.1
2018-Apr-18 20:59N 52°04' E 003°05'2 4.4
2018-Apr-18 20:30N 52°03' E 003°08'4 8.1
2018-Apr-18 19:59N 52°03' E 003°14'611.6
2018-Apr-18 19:30N 52°04' E 003°23'510.9
2018-Apr-18 19:00N 52°04' E 003°32'611.2
2018-Apr-18 18:30N 52°04' E 003°41'4 8.7
2018-Apr-18 18:00N 52°03' E 003°48'4 8.3
2018-Apr-18 17:30N 52°03' E 003°55'3 6.1
2018-Apr-18 17:00N 52°01' E 003°59'611.2
2018-Apr-18 16:31N 51°59' E 004°07'5 9.3
2018-Apr-18 16:00N 51°56' E 004°13'4 7.7
2018-Apr-18 15:30N 51°53' E 004°18'1 1.4
2018-Apr-18 14:58N 51°53' E 004°17'0 0.0
2018-Apr-18 14:25N 51°53' E 004°17'0 0.0
2018-Apr-18 13:58N 51°53' E 004°17'0 0.0
2018-Apr-18 13:28N 51°53' E 004°17'0 0.0
2018-Apr-18 12:58N 51°53' E 004°17'0 0.0
2018-Apr-18 12:28N 51°53' E 004°17'0 0.0
2018-Apr-18 11:55N 51°53' E 004°17'0 0.0
2018-Apr-18 11:28N 51°53' E 004°17'0 0.0
2018-Apr-18 10:55N 51°53' E 004°17'0 0.0
2018-Apr-18 10:22N 51°53' E 004°17'0 0.0
2018-Apr-18 09:55N 51°53' E 004°17'0 0.0
2018-Apr-18 09:28N 51°53' E 004°17'0 0.0
2018-Apr-18 08:55N 51°53' E 004°17'0 0.0
2018-Apr-18 08:28N 51°53' E 004°17'0 0.0
2018-Apr-18 07:58N 51°53' E 004°17'0 0.0
2018-Apr-18 07:19N 51°53' E 004°17'0 0.0
2018-Apr-18 06:58N 51°53' E 004°17'0 0.0
2018-Apr-18 06:28N 51°53' E 004°17'0 0.0
2018-Apr-18 05:58N 51°53' E 004°17'0 0.0
2018-Apr-18 05:25N 51°53' E 004°17'0 0.0
2018-Apr-18 04:43N 51°53' E 004°17'0 0.0
2018-Apr-18 04:25N 51°53' E 004°17'0 0.0
2018-Apr-18 03:52N 51°53' E 004°17'0 0.0
2018-Apr-18 03:28N 51°53' E 004°17'0 0.0
2018-Apr-18 02:58N 51°53' E 004°17'0 0.0
2018-Apr-18 02:28N 51°53' E 004°17'0 0.0
2018-Apr-18 01:58N 51°53' E 004°17'0 0.0
2018-Apr-18 01:28N 51°53' E 004°17'0 0.0
2018-Apr-18 00:55N 51°53' E 004°17'0 0.0
2018-Apr-18 00:25N 51°53' E 004°17'0 0.0
2018-Apr-17 23:58N 51°53' E 004°17'0 0.0
2018-Apr-17 23:25N 51°53' E 004°17'0 0.0
2018-Apr-17 22:34N 51°53' E 004°17'0 0.0
2018-Apr-17 22:25N 51°53' E 004°17'0 0.0
2018-Apr-17 21:58N 51°53' E 004°17'0 0.0
2018-Apr-17 21:25N 51°53' E 004°17'0 0.0
2018-Apr-17 20:58N 51°53' E 004°17'0 0.0
2018-Apr-17 20:25N 51°53' E 004°17'0 0.0
2018-Apr-17 19:58N 51°53' E 004°17'0 0.0
2018-Apr-17 19:25N 51°53' E 004°17'0 0.0
2018-Apr-17 18:58N 51°53' E 004°17'0 0.0
2018-Apr-17 18:25N 51°53' E 004°17'0 0.0
2018-Apr-17 17:55N 51°53' E 004°17'0 0.0
2018-Apr-17 17:28N 51°53' E 004°17'0 0.0
2018-Apr-17 16:55N 51°53' E 004°17'0 0.0
2018-Apr-17 16:25N 51°53' E 004°17'0 0.0
2018-Apr-17 15:52N 51°53' E 004°17'0 0.0
2018-Apr-17 15:28N 51°53' E 004°17'0 0.0
2018-Apr-17 14:49N 51°53' E 004°17'0 0.0
2018-Apr-17 14:16N 51°53' E 004°17'0 0.0
2018-Apr-17 13:58N 51°53' E 004°17'0 0.0
2018-Apr-17 13:25N 51°53' E 004°17'0 0.0
2018-Apr-17 12:55N 51°53' E 004°17'0 0.0
2018-Apr-17 12:28N 51°53' E 004°17'0 0.0
2018-Apr-17 11:49N 51°53' E 004°17'0 0.0
2018-Apr-17 11:28N 51°53' E 004°17'0 0.0
2018-Apr-17 10:58N 51°53' E 004°17'0 0.0
2018-Apr-17 10:28N 51°53' E 004°17'0 0.0
2018-Apr-17 09:55N 51°53' E 004°17'0 0.0
2018-Apr-17 09:25N 51°53' E 004°17'0 0.0
2018-Apr-17 08:58N 51°53' E 004°17'0 0.0
2018-Apr-17 08:28N 51°53' E 004°17'0 0.0
2018-Apr-17 07:58N 51°53' E 004°17'0 0.0
2018-Apr-17 07:28N 51°53' E 004°17'0 0.0
2018-Apr-17 06:58N 51°53' E 004°17'0 0.0
2018-Apr-17 06:25N 51°53' E 004°17'0 0.0
2018-Apr-17 05:49N 51°53' E 004°17'0 0.0
2018-Apr-17 05:28N 51°53' E 004°17'0 0.0
2018-Apr-17 04:58N 51°53' E 004°17'0 0.3
2018-Apr-17 04:31N 51°53' E 004°17'1 3.0
2018-Apr-17 04:00N 51°54' E 004°16'510.8
2018-Apr-17 03:30N 51°58' E 004°09'510.8
2018-Apr-17 03:00N 51°60' E 004°01'612.0
2018-Apr-17 02:30N 51°60' E 003°51'5 9.7
2018-Apr-17 02:00N 51°59' E 003°43'4 8.5
2018-Apr-17 01:30N 51°58' E 003°37'4 7.4
2018-Apr-17 00:56N 51°57' E 003°30'3 7.1
2018-Apr-17 00:30N 51°55' E 003°26'4 7.6
2018-Apr-17 00:00N 51°54' E 003°20'4 7.7
2018-Apr-16 23:30N 51°53' E 003°14'4 7.6
2018-Apr-16 23:00N 51°52' E 003°08'4 7.3
2018-Apr-16 22:26N 51°51' E 003°02'14 7.1
2018-Apr-16 20:26N 51°45' E 002°40'7 7.0
2018-Apr-16 19:30N 51°41' E 002°32'3 7.0
2018-Apr-16 19:00N 51°39' E 002°28'4 7.0
2018-Apr-16 18:30N 51°36' E 002°25'4 7.1
2018-Apr-16 17:58N 51°33' E 002°21'3 7.2
2018-Apr-16 17:30N 51°30' E 002°18'3 7.1
2018-Apr-16 17:00N 51°27' E 002°15'5 9.2
2018-Apr-16 16:30N 51°23' E 002°11'510.5
2018-Apr-16 16:01N 51°19' E 002°08'510.8
2018-Apr-16 15:31N 51°14' E 002°04'611.1
2018-Apr-16 15:01N 51°11' E 001°56'612.0
2018-Apr-16 14:30N 51°08' E 001°48'713.6
2018-Apr-16 14:00N 51°03' E 001°41'1514.5
2018-Apr-16 12:59N 50°52' E 001°25'914.0
2018-Apr-16 12:19N 50°43' E 001°20'4612.8
2018-Apr-16 08:46N 50°22' E 000°16'414.0
2018-Apr-16 08:29N 50°21' E 000°10'713.8
2018-Apr-16 08:00N 50°20' E 000°00'713.5
2018-Apr-16 07:31N 50°18' W 000°10'1813.2
2018-Apr-16 06:06N 50°14' W 000°38'212.4
2018-Apr-16 05:56N 50°14' W 000°41'1411.3
2018-Apr-16 04:44N 50°11' W 001°02'210.2
2018-Apr-16 04:31N 50°10' W 001°06'6 9.6
2018-Apr-16 03:55N 50°09' W 001°14'4 8.8
2018-Apr-16 03:30N 50°08' W 001°20'4 8.2
2018-Apr-16 03:00N 50°06' W 001°26'4 7.9
2018-Apr-16 02:30N 50°05' W 001°31'4 7.6
2018-Apr-16 02:01N 50°04' W 001°37'4 7.3
2018-Apr-16 01:31N 50°03' W 001°42'4 7.5
2018-Apr-16 01:01N 50°01' W 001°48'4 7.8
2018-Apr-16 00:30N 49°60' W 001°54'4 8.5
2018-Apr-16 00:00N 49°59' W 002°00'5 9.3
2018-Apr-15 23:30N 49°57' W 002°07'14212.1
2018-Apr-15 11:50N 48°53' W 005°22'410.4
2018-Apr-15 11:25N 48°51' W 005°27'510.1
2018-Apr-15 10:58N 48°49' W 005°33'  
Track history (hours):
 
Tides and Currents Weather Stations Pressure Air Temp Water Temp Dewpoint Dewpoint Depression Visibility Wind Speed Wind Dir Waves Ship Positions

Stolt Shearwater

Last reported at 2018-Apr-23 01:55 UTC. Time now 2018-Apr-23 02:11 UTC.
Position N 49°29' W 000°09'.

Length 96 m; draft 5.4 m.

Type: Ship (hazmat cat B). MMSI: 319402000.

Date/timePositionNaut miles runAvg speedWind from/ knotsBaromVisibWave heightAir tempDewpointWater temp
2018-Apr-23 01:55N 49°29' W 000°09'0 0.0
2018-Apr-23 01:25N 49°29' W 000°09'0 0.0
2018-Apr-23 00:58N 49°29' W 000°09'0 0.0
2018-Apr-23 00:28N 49°29' W 000°09'0 0.0
2018-Apr-22 23:58N 49°29' W 000°09'0 0.0
2018-Apr-22 23:28N 49°29' W 000°09'0 0.1
2018-Apr-22 22:58N 49°29' W 000°09'0 0.2
2018-Apr-22 22:28N 49°29' W 000°10'0 0.0
2018-Apr-22 21:58N 49°29' W 000°10'0 0.0
2018-Apr-22 21:28N 49°29' W 000°10'0 0.0
2018-Apr-22 20:52N 49°29' W 000°10'0 0.0
2018-Apr-22 20:25N 49°29' W 000°10'0 0.0
2018-Apr-22 19:58N 49°29' W 000°10'0 0.0
2018-Apr-22 19:28N 49°29' W 000°10'0 0.0
2018-Apr-22 18:58N 49°29' W 000°10'0 0.0
2018-Apr-22 18:28N 49°29' W 000°10'0 0.0
2018-Apr-22 17:58N 49°29' W 000°10'0 0.0
2018-Apr-22 17:28N 49°29' W 000°10'0 0.0
2018-Apr-22 16:58N 49°29' W 000°10'0 0.1
2018-Apr-22 16:30N 49°29' W 000°10'0 0.1
2018-Apr-22 16:01N 49°29' W 000°10'3 5.4
2018-Apr-22 15:30N 49°30' W 000°13'611.1
2018-Apr-22 15:00N 49°32' W 000°21'612.3
2018-Apr-22 14:30N 49°35' W 000°30'511.0
2018-Apr-22 14:00N 49°39' W 000°36'612.4
2018-Apr-22 13:31N 49°44' W 000°39'5 9.2
2018-Apr-22 13:01N 49°45' W 000°32'5 9.4
2018-Apr-22 12:30N 49°45' W 000°24'4 7.8
2018-Apr-22 12:00N 49°44' W 000°19'611.2
2018-Apr-22 11:30N 49°38' W 000°19'510.5
2018-Apr-22 11:00N 49°34' W 000°14'510.2
2018-Apr-22 10:30N 49°30' W 000°09'511.0
2018-Apr-22 10:00N 49°28' W 000°01'510.9
2018-Apr-22 09:30N 49°26' E 000°07'713.3
2018-Apr-22 09:00N 49°26' E 000°17'713.5
2018-Apr-22 08:31N 49°28' E 000°27'510.7
2018-Apr-22 08:00N 49°26' E 000°35'611.5
2018-Apr-22 07:31N 49°30' E 000°40'4 8.1
2018-Apr-22 07:00N 49°29' E 000°46'510.8
2018-Apr-22 06:30N 49°24' E 000°49'4 7.4
2018-Apr-22 06:01N 49°27' E 000°51'3 6.4
2018-Apr-22 05:30N 49°27' E 000°56'510.9
2018-Apr-22 05:01N 49°21' E 000°56'4 7.8
2018-Apr-22 04:30N 49°24' E 001°01'2 3.4
2018-Apr-22 04:00N 49°25' E 001°01'0 0.0
2018-Apr-22 03:30N 49°25' E 001°01'0 0.0
2018-Apr-22 03:00N 49°25' E 001°01'0 0.0
2018-Apr-22 02:30N 49°25' E 001°01'0 0.0
2018-Apr-22 02:00N 49°25' E 001°01'0 0.0
2018-Apr-22 01:30N 49°25' E 001°01'0 0.0
2018-Apr-22 01:00N 49°25' E 001°01'0 0.0
2018-Apr-22 00:30N 49°25' E 001°01'0 0.0
2018-Apr-22 00:00N 49°25' E 001°01'0 0.0
2018-Apr-21 23:27N 49°25' E 001°01'0 0.0
2018-Apr-21 23:00N 49°25' E 001°01'0 0.0
2018-Apr-21 22:30N 49°25' E 001°01'0 0.0
2018-Apr-21 22:00N 49°25' E 001°01'0 0.0
2018-Apr-21 21:30N 49°25' E 001°01'0 0.0
2018-Apr-21 21:00N 49°25' E 001°01'0 0.0
2018-Apr-21 20:30N 49°25' E 001°01'0 0.0
2018-Apr-21 20:00N 49°25' E 001°01'0 0.0
2018-Apr-21 19:30N 49°25' E 001°01'0 0.0
2018-Apr-21 19:00N 49°25' E 001°01'0 0.0
2018-Apr-21 18:30N 49°25' E 001°01'0 0.0
2018-Apr-21 18:00N 49°25' E 001°01'0 0.0
2018-Apr-21 17:30N 49°25' E 001°01'0 0.0
2018-Apr-21 17:00N 49°25' E 001°01'0 0.0
2018-Apr-21 16:30N 49°25' E 001°01'0 0.0
2018-Apr-21 16:00N 49°25' E 001°01'0 0.0
2018-Apr-21 15:30N 49°25' E 001°01'2 4.1
2018-Apr-21 15:00N 49°23' E 001°01'4 7.6
2018-Apr-21 14:30N 49°22' E 000°55'611.9
2018-Apr-21 14:00N 49°27' E 000°56'3 6.2
2018-Apr-21 13:30N 49°26' E 000°52'2 4.8
2018-Apr-21 13:00N 49°25' E 000°48'510.4
2018-Apr-21 12:30N 49°30' E 000°46'4 8.5
2018-Apr-21 12:00N 49°29' E 000°40'5 9.3
2018-Apr-21 11:30N 49°27' E 000°34'4 8.7
2018-Apr-21 11:00N 49°28' E 000°28'612.5
2018-Apr-21 10:30N 49°26' E 000°19'611.8
2018-Apr-21 10:00N 49°26' E 000°10'611.4
2018-Apr-21 09:30N 49°27' E 000°01'5 9.6
2018-Apr-21 09:00N 49°29' W 000°06'5 9.5
2018-Apr-21 08:30N 49°30' W 000°13'510.1
2018-Apr-21 08:00N 49°32' W 000°20'5 9.8
2018-Apr-21 07:30N 49°35' W 000°26'5 9.7
2018-Apr-21 07:00N 49°39' W 000°31'4 8.3
2018-Apr-21 06:30N 49°43' W 000°30'4 8.8
2018-Apr-21 06:00N 49°47' W 000°28'4 8.9
2018-Apr-21 05:30N 49°51' W 000°25'5 9.1
2018-Apr-21 05:00N 49°55' W 000°22'5 9.1
2018-Apr-21 04:30N 49°59' W 000°18'5 9.1
2018-Apr-21 04:01N 50°03' W 000°15'5 9.1
2018-Apr-21 03:31N 50°07' W 000°12'5 9.2
2018-Apr-21 03:00N 50°11' W 000°09'5 9.1
2018-Apr-21 02:30N 50°16' W 000°08'5 9.7
2018-Apr-21 02:00N 50°20' W 000°10'5 9.9
2018-Apr-21 01:30N 50°25' W 000°11'4 8.1
2018-Apr-21 01:00N 50°28' W 000°06'5 9.2
2018-Apr-21 00:30N 50°29' E 000°01'4 8.9
2018-Apr-21 00:00N 50°30' E 000°08'4 8.5
2018-Apr-20 23:30N 50°32' E 000°14'4 8.7
2018-Apr-20 23:00N 50°33' E 000°21'4 8.6
2018-Apr-20 22:30N 50°34' E 000°27'4 8.8
2018-Apr-20 22:00N 50°35' E 000°34'4 8.6
2018-Apr-20 21:30N 50°37' E 000°40'4 9.0
2018-Apr-20 21:00N 50°39' E 000°46'4 8.9
2018-Apr-20 20:30N 50°42' E 000°52'5 9.3
2018-Apr-20 20:00N 50°45' E 000°58'5 9.4
2018-Apr-20 19:30N 50°47' E 001°04'5 9.6
2018-Apr-20 18:58N 50°50' E 001°10'5 9.4
2018-Apr-20 18:29N 50°53' E 001°16'5 9.5
2018-Apr-20 18:00N 50°56' E 001°21'5 9.4
2018-Apr-20 17:30N 51°00' E 001°25'5 9.2
2018-Apr-20 17:00N 51°04' E 001°30'4 8.0
2018-Apr-20 16:30N 51°06' E 001°35'4 7.4
2018-Apr-20 16:01N 51°09' E 001°39'4 7.3
2018-Apr-20 15:30N 51°12' E 001°43'4 7.8
2018-Apr-20 15:00N 51°15' E 001°46'4 8.7
2018-Apr-20 14:30N 51°19' E 001°50'5 9.5
2018-Apr-20 14:00N 51°23' E 001°53'510.4
2018-Apr-20 13:30N 51°27' E 001°58'611.1
2018-Apr-20 13:00N 51°31' E 002°04'611.7
2018-Apr-20 12:30N 51°36' E 002°10'612.5
2018-Apr-20 12:00N 51°40' E 002°17'613.0
2018-Apr-20 11:31N 51°45' E 002°24'713.0
2018-Apr-20 11:00N 51°50' E 002°32'812.8
2018-Apr-20 10:23N 51°55' E 002°40'812.3
2018-Apr-20 09:45N 52°01' E 002°49'311.5
2018-Apr-20 09:30N 52°01' E 002°54'611.4
2018-Apr-20 08:59N 52°02' E 003°03'611.3
2018-Apr-20 08:30N 52°02' E 003°12'611.1
2018-Apr-20 08:00N 52°03' E 003°21'611.0
2018-Apr-20 07:27N 52°03' E 003°31'510.8
2018-Apr-20 07:00N 52°03' E 003°39'510.0
2018-Apr-20 06:30N 52°03' E 003°47'4 8.5
2018-Apr-20 06:00N 52°02' E 003°54'4 7.8
2018-Apr-20 05:31N 52°01' E 003°60'510.1
2018-Apr-20 05:00N 51°59' E 004°07'4 8.0
2018-Apr-20 04:30N 51°56' E 004°12'4 7.9
2018-Apr-20 04:00N 51°54' E 004°17'1 2.6
2018-Apr-20 03:29N 51°53' E 004°16'0 0.0
2018-Apr-19 11:44N 51°53' E 004°16'0 0.0
2018-Apr-19 11:30N 51°53' E 004°16'0 0.0
2018-Apr-19 11:00N 51°53' E 004°16'0 0.4
2018-Apr-19 10:30N 51°53' E 004°17'1 2.5
2018-Apr-19 10:00N 51°54' E 004°16'4 8.2
2018-Apr-19 09:30N 51°57' E 004°11'4 7.4
2018-Apr-19 09:00N 51°59' E 004°06'4 8.6
2018-Apr-19 08:30N 51°60' E 003°59'510.3
2018-Apr-19 08:00N 52°00' E 003°51'4 9.0
2018-Apr-19 07:31N 51°59' E 003°44'2 3.1
2018-Apr-19 07:00N 51°59' E 003°41'1 2.8
2018-Apr-19 06:30N 51°59' E 003°39'1 2.8
2018-Apr-19 06:00N 51°60' E 003°37'2 3.2
2018-Apr-19 05:28N 52°01' E 003°37'1 3.2
2018-Apr-19 05:00N 52°03' E 003°36'2 3.1
2018-Apr-19 04:30N 52°04' E 003°36'2 3.5
2018-Apr-19 04:00N 52°06' E 003°35'2 3.2
2018-Apr-19 03:30N 52°07' E 003°33'3 6.9
2018-Apr-19 03:00N 52°08' E 003°28'2 3.6
2018-Apr-19 02:30N 52°09' E 003°25'2 3.6
2018-Apr-19 02:00N 52°10' E 003°23'2 3.5
2018-Apr-19 01:29N 52°11' E 003°20'2 3.3
2018-Apr-19 01:00N 52°12' E 003°19'2 3.4
2018-Apr-19 00:28N 52°13' E 003°16'3 3.6
2018-Apr-18 23:42N 52°12' E 003°13'1 3.5
2018-Apr-18 23:21N 52°11' E 003°11'1 3.5
2018-Apr-18 22:59N 52°10' E 003°10'2 3.7
2018-Apr-18 22:30N 52°08' E 003°08'2 3.6
2018-Apr-18 21:59N 52°07' E 003°06'2 3.4
2018-Apr-18 21:28N 52°06' E 003°04'2 3.1
2018-Apr-18 20:59N 52°04' E 003°05'2 4.4
2018-Apr-18 20:30N 52°03' E 003°08'4 8.1
2018-Apr-18 19:59N 52°03' E 003°14'611.6
2018-Apr-18 19:30N 52°04' E 003°23'510.9
2018-Apr-18 19:00N 52°04' E 003°32'611.2
2018-Apr-18 18:30N 52°04' E 003°41'4 8.7
2018-Apr-18 18:00N 52°03' E 003°48'4 8.3
2018-Apr-18 17:30N 52°03' E 003°55'3 6.1
2018-Apr-18 17:00N 52°01' E 003°59'611.2
2018-Apr-18 16:31N 51°59' E 004°07'5 9.3
2018-Apr-18 16:00N 51°56' E 004°13'4 7.7
2018-Apr-18 15:30N 51°53' E 004°18'1 1.4
2018-Apr-18 14:58N 51°53' E 004°17'0 0.0
2018-Apr-18 14:25N 51°53' E 004°17'0 0.0
2018-Apr-18 13:58N 51°53' E 004°17'0 0.0
2018-Apr-18 13:28N 51°53' E 004°17'0 0.0
2018-Apr-18 12:58N 51°53' E 004°17'0 0.0
2018-Apr-18 12:28N 51°53' E 004°17'0 0.0
2018-Apr-18 11:55N 51°53' E 004°17'0 0.0
2018-Apr-18 11:28N 51°53' E 004°17'0 0.0
2018-Apr-18 10:55N 51°53' E 004°17'0 0.0
2018-Apr-18 10:22N 51°53' E 004°17'0 0.0
2018-Apr-18 09:55N 51°53' E 004°17'0 0.0
2018-Apr-18 09:28N 51°53' E 004°17'0 0.0
2018-Apr-18 08:55N 51°53' E 004°17'0 0.0
2018-Apr-18 08:28N 51°53' E 004°17'0 0.0
2018-Apr-18 07:58N 51°53' E 004°17'0 0.0
2018-Apr-18 07:19N 51°53' E 004°17'0 0.0
2018-Apr-18 06:58N 51°53' E 004°17'0 0.0
2018-Apr-18 06:28N 51°53' E 004°17'0 0.0
2018-Apr-18 05:58N 51°53' E 004°17'0 0.0
2018-Apr-18 05:25N 51°53' E 004°17'0 0.0
2018-Apr-18 04:43N 51°53' E 004°17'0 0.0
2018-Apr-18 04:25N 51°53' E 004°17'0 0.0
2018-Apr-18 03:52N 51°53' E 004°17'0 0.0
2018-Apr-18 03:28N 51°53' E 004°17'0 0.0
2018-Apr-18 02:58N 51°53' E 004°17'0 0.0
2018-Apr-18 02:28N 51°53' E 004°17'0 0.0
2018-Apr-18 01:58N 51°53' E 004°17'0 0.0
2018-Apr-18 01:28N 51°53' E 004°17'0 0.0
2018-Apr-18 00:55N 51°53' E 004°17'0 0.0
2018-Apr-18 00:25N 51°53' E 004°17'0 0.0
2018-Apr-17 23:58N 51°53' E 004°17'0 0.0
2018-Apr-17 23:25N 51°53' E 004°17'0 0.0
2018-Apr-17 22:34N 51°53' E 004°17'0 0.0
2018-Apr-17 22:25N 51°53' E 004°17'0 0.0
2018-Apr-17 21:58N 51°53' E 004°17'0 0.0
2018-Apr-17 21:25N 51°53' E 004°17'0 0.0
2018-Apr-17 20:58N 51°53' E 004°17'0 0.0
2018-Apr-17 20:25N 51°53' E 004°17'0 0.0
2018-Apr-17 19:58N 51°53' E 004°17'0 0.0
2018-Apr-17 19:25N 51°53' E 004°17'0 0.0
2018-Apr-17 18:58N 51°53' E 004°17'0 0.0
2018-Apr-17 18:25N 51°53' E 004°17'0 0.0
2018-Apr-17 17:55N 51°53' E 004°17'0 0.0
2018-Apr-17 17:28N 51°53' E 004°17'0 0.0
2018-Apr-17 16:55N 51°53' E 004°17'0 0.0
2018-Apr-17 16:25N 51°53' E 004°17'0 0.0
2018-Apr-17 15:52N 51°53' E 004°17'0 0.0
2018-Apr-17 15:28N 51°53' E 004°17'0 0.0
2018-Apr-17 14:49N 51°53' E 004°17'0 0.0
2018-Apr-17 14:16N 51°53' E 004°17'0 0.0
2018-Apr-17 13:58N 51°53' E 004°17'0 0.0
2018-Apr-17 13:25N 51°53' E 004°17'0 0.0
2018-Apr-17 12:55N 51°53' E 004°17'0 0.0
2018-Apr-17 12:28N 51°53' E 004°17'0 0.0
2018-Apr-17 11:49N 51°53' E 004°17'0 0.0
2018-Apr-17 11:28N 51°53' E 004°17'0 0.0
2018-Apr-17 10:58N 51°53' E 004°17'0 0.0
2018-Apr-17 10:28N 51°53' E 004°17'0 0.0
2018-Apr-17 09:55N 51°53' E 004°17'0 0.0
2018-Apr-17 09:25N 51°53' E 004°17'0 0.0
2018-Apr-17 08:58N 51°53' E 004°17'0 0.0
2018-Apr-17 08:28N 51°53' E 004°17'0 0.0
2018-Apr-17 07:58N 51°53' E 004°17'0 0.0
2018-Apr-17 07:28N 51°53' E 004°17'0 0.0
2018-Apr-17 06:58N 51°53' E 004°17'0 0.0
2018-Apr-17 06:25N 51°53' E 004°17'0 0.0
2018-Apr-17 05:49N 51°53' E 004°17'0 0.0
2018-Apr-17 05:28N 51°53' E 004°17'0 0.0
2018-Apr-17 04:58N 51°53' E 004°17'0 0.3
2018-Apr-17 04:31N 51°53' E 004°17'1 3.0
2018-Apr-17 04:00N 51°54' E 004°16'510.8
2018-Apr-17 03:30N 51°58' E 004°09'510.8
2018-Apr-17 03:00N 51°60' E 004°01'612.0
2018-Apr-17 02:30N 51°60' E 003°51'5 9.7
2018-Apr-17 02:00N 51°59' E 003°43'4 8.5
2018-Apr-17 01:30N 51°58' E 003°37'4 7.4
2018-Apr-17 00:56N 51°57' E 003°30'3 7.1
2018-Apr-17 00:30N 51°55' E 003°26'4 7.6
2018-Apr-17 00:00N 51°54' E 003°20'4 7.7
2018-Apr-16 23:30N 51°53' E 003°14'4 7.6
2018-Apr-16 23:00N 51°52' E 003°08'4 7.3
2018-Apr-16 22:26N 51°51' E 003°02'14 7.1
2018-Apr-16 20:26N 51°45' E 002°40'7 7.0
2018-Apr-16 19:30N 51°41' E 002°32'3 7.0
2018-Apr-16 19:00N 51°39' E 002°28'4 7.0
2018-Apr-16 18:30N 51°36' E 002°25'4 7.1
2018-Apr-16 17:58N 51°33' E 002°21'3 7.2
2018-Apr-16 17:30N 51°30' E 002°18'3 7.1
2018-Apr-16 17:00N 51°27' E 002°15'5 9.2
2018-Apr-16 16:30N 51°23' E 002°11'510.5
2018-Apr-16 16:01N 51°19' E 002°08'510.8
2018-Apr-16 15:31N 51°14' E 002°04'611.1
2018-Apr-16 15:01N 51°11' E 001°56'612.0
2018-Apr-16 14:30N 51°08' E 001°48'713.6
2018-Apr-16 14:00N 51°03' E 001°41'1514.5
2018-Apr-16 12:59N 50°52' E 001°25'914.0
2018-Apr-16 12:19N 50°43' E 001°20'4612.8
2018-Apr-16 08:46N 50°22' E 000°16'414.0
2018-Apr-16 08:29N 50°21' E 000°10'713.8
2018-Apr-16 08:00N 50°20' E 000°00'713.5
2018-Apr-16 07:31N 50°18' W 000°10'1813.2
2018-Apr-16 06:06N 50°14' W 000°38'212.4
2018-Apr-16 05:56N 50°14' W 000°41'1411.3
2018-Apr-16 04:44N 50°11' W 001°02'210.2
2018-Apr-16 04:31N 50°10' W 001°06'6 9.6
2018-Apr-16 03:55N 50°09' W 001°14'4 8.8
2018-Apr-16 03:30N 50°08' W 001°20'4 8.2
2018-Apr-16 03:00N 50°06' W 001°26'4 7.9
2018-Apr-16 02:30N 50°05' W 001°31'4 7.6
2018-Apr-16 02:01N 50°04' W 001°37'4 7.3
2018-Apr-16 01:31N 50°03' W 001°42'4 7.5
2018-Apr-16 01:01N 50°01' W 001°48'4 7.8
2018-Apr-16 00:30N 49°60' W 001°54'4 8.5
2018-Apr-16 00:00N 49°59' W 002°00'5 9.3
2018-Apr-15 23:30N 49°57' W 002°07'14212.1
2018-Apr-15 11:50N 48°53' W 005°22'410.4
2018-Apr-15 11:25N 48°51' W 005°27'510.1
2018-Apr-15 10:58N 48°49' W 005°33'  

Dump ship's entire track history